createdAt,value
2023-04-02T00:02:21.080Z,16.88
2023-04-02T00:05:30.342Z,18.98
2023-04-02T00:08:26.469Z,18.42
2023-04-02T00:10:55.138Z,18.23
2023-04-02T00:13:28.832Z,18.08
2023-04-02T00:15:58.293Z,17.67
2023-04-02T00:18:26.748Z,18.73
2023-04-02T00:21:03.450Z,18.70
2023-04-02T00:23:31.060Z,19.73
2023-04-02T00:25:57.964Z,18.98
2023-04-02T00:28:24.984Z,18.00
2023-04-02T00:30:56.201Z,19.13
2023-04-02T00:33:26.931Z,18.27
2023-04-02T00:35:55.370Z,17.88
2023-04-02T00:38:29.745Z,18.40
2023-04-02T00:41:00.633Z,18.65
2023-04-02T00:43:31.131Z,18.13
2023-04-02T00:46:01.360Z,19.27
2023-04-02T00:48:31.482Z,19.30
2023-04-02T00:51:08.252Z,18.70
2023-04-02T00:53:37.271Z,18.05
2023-04-02T00:56:14.607Z,18.25
2023-04-02T00:58:43.476Z,18.75
2023-04-02T01:01:27.592Z,19.67
2023-04-02T01:03:58.429Z,17.65
2023-04-02T01:06:31.214Z,17.05
2023-04-02T01:09:11.805Z,16.65
2023-04-02T01:11:42.113Z,17.70
2023-04-02T01:14:21.229Z,18.95
2023-04-02T01:17:15.632Z,17.20
2023-04-02T01:20:07.918Z,16.17
2023-04-02T01:22:57.978Z,17.55
2023-04-02T01:25:35.793Z,16.83
2023-04-02T01:28:21.241Z,17.30
2023-04-02T01:30:52.860Z,17.33
2023-04-02T01:33:25.094Z,17.58
2023-04-02T01:36:03.095Z,16.80
2023-04-02T01:38:38.265Z,16.55
2023-04-02T01:41:27.091Z,16.95
2023-04-02T01:44:08.263Z,15.60
2023-04-02T01:46:41.148Z,16.83
2023-04-02T01:49:18.725Z,15.93
2023-04-02T01:51:51.926Z,16.58
2023-04-02T01:54:22.024Z,16.90
2023-04-02T01:56:50.519Z,15.60
2023-04-02T01:59:22.544Z,17.17
2023-04-02T02:01:58.331Z,16.15
2023-04-02T02:04:25.896Z,16.75
2023-04-02T02:06:52.875Z,16.02
2023-04-02T02:09:27.344Z,15.55
2023-04-02T02:11:54.741Z,14.98
2023-04-02T02:14:24.949Z,16.58
2023-04-02T02:17:15.760Z,15.68
2023-04-02T02:19:53.425Z,17.15
2023-04-02T02:22:38.981Z,15.27
2023-04-02T02:25:14.213Z,15.18
2023-04-02T02:27:53.520Z,14.30
2023-04-02T02:30:35.051Z,15.18
2023-04-02T02:33:04.924Z,15.60
2023-04-02T02:35:57.956Z,15.18
2023-04-02T02:38:49.255Z,16.35
2023-04-02T02:41:41.504Z,13.82
2023-04-02T02:44:09.363Z,14.05
2023-04-02T02:46:41.862Z,14.18
2023-04-02T02:49:16.783Z,14.05
2023-04-02T02:51:50.872Z,13.75
2023-04-02T02:54:26.465Z,12.82
2023-04-02T02:56:59.371Z,14.73
2023-04-02T02:59:29.759Z,12.85
2023-04-02T03:01:57.246Z,14.63
2023-04-02T03:04:25.239Z,14.60
2023-04-02T03:06:57.902Z,15.05
2023-04-02T03:09:42.113Z,13.60
2023-04-02T03:12:26.264Z,13.50
2023-04-02T03:15:13.793Z,14.05
2023-04-02T03:17:59.305Z,13.55
2023-04-02T03:20:38.656Z,13.52
2023-04-02T03:23:08.857Z,13.10
2023-04-02T03:25:52.748Z,14.27
2023-04-02T03:28:27.104Z,14.48
2023-04-02T03:31:09.021Z,14.35
2023-04-02T03:33:40.938Z,13.70
2023-04-02T03:36:32.200Z,13.40
2023-04-02T03:39:44.339Z,14.15
2023-04-02T03:42:17.308Z,14.02
2023-04-02T03:44:54.980Z,14.00
2023-04-02T03:50:08.877Z,13.98
2023-04-02T03:52:38.381Z,13.98
2023-04-02T03:55:20.237Z,15.00
2023-04-02T03:58:09.011Z,14.48
2023-04-02T04:00:57.849Z,14.02
2023-04-02T04:06:06.699Z,13.10
2023-04-02T04:09:06.338Z,13.25
2023-04-02T04:11:38.635Z,13.52
2023-04-02T04:14:31.466Z,11.70
2023-04-02T04:17:06.082Z,11.75
2023-04-02T04:19:48.459Z,12.48
2023-04-02T04:22:30.460Z,12.25
2023-04-02T04:25:21.186Z,12.88
2023-04-02T04:27:56.201Z,11.60
2023-04-02T04:30:42.511Z,11.90
2023-04-02T04:33:23.331Z,11.68
2023-04-02T04:36:00.859Z,11.02
2023-04-02T04:38:41.308Z,11.77
2023-04-02T04:41:24.511Z,11.20
2023-04-02T04:44:06.015Z,11.35
2023-04-02T04:46:45.787Z,10.40
2023-04-02T04:49:39.788Z,10.40
2023-04-02T04:52:35.848Z,11.73
2023-04-02T04:55:30.992Z,11.68
2023-04-02T04:58:24.044Z,10.65
2023-04-02T05:01:10.608Z,11.35
2023-04-02T05:03:52.235Z,12.02
2023-04-02T05:06:25.947Z,10.95
2023-04-02T05:08:57.496Z,10.98
2023-04-02T05:11:38.461Z,11.15
2023-04-02T05:14:52.143Z,10.80
2023-04-02T05:17:46.568Z,13.15
2023-04-02T05:20:28.622Z,10.88
2023-04-02T05:23:20.132Z,11.75
2023-04-02T05:26:19.183Z,10.73
2023-04-02T05:29:10.798Z,11.10
2023-04-02T05:31:49.860Z,11.65
2023-04-02T05:34:25.893Z,10.43
2023-04-02T05:36:54.290Z,11.18
2023-04-02T05:39:26.561Z,11.15
2023-04-02T05:45:33.884Z,10.27
2023-04-02T05:48:13.352Z,11.35
2023-04-02T05:50:47.904Z,10.52
2023-04-02T05:53:37.426Z,11.57
2023-04-02T05:56:37.787Z,11.45
2023-04-02T05:59:28.208Z,11.18
2023-04-02T06:02:17.509Z,11.95
2023-04-02T06:05:04.697Z,11.70
2023-04-02T06:07:58.300Z,11.90
2023-04-02T06:10:31.552Z,11.25
2023-04-02T06:13:05.366Z,12.18
2023-04-02T06:15:38.488Z,12.38
2023-04-02T06:18:26.631Z,12.57
2023-04-02T06:20:55.189Z,11.30
2023-04-02T06:23:35.018Z,11.25
2023-04-02T06:26:14.199Z,12.13
2023-04-02T06:28:47.170Z,12.80
2023-04-02T06:31:32.445Z,11.98
2023-04-02T06:33:59.561Z,12.00
2023-04-02T06:36:31.219Z,12.75
2023-04-02T06:39:11.464Z,13.15
2023-04-02T06:41:38.829Z,11.57
2023-04-02T06:47:30.061Z,10.75
2023-04-02T06:50:24.154Z,10.90
2023-04-02T06:52:55.317Z,10.75
2023-04-02T06:55:36.802Z,10.15
2023-04-02T06:58:04.082Z,10.88
2023-04-02T07:00:38.625Z,11.48
2023-04-02T07:03:21.952Z,12.55
2023-04-02T07:05:51.766Z,11.32
2023-04-02T07:08:18.941Z,10.80
2023-04-02T07:10:46.787Z,10.88
2023-04-02T07:13:19.958Z,10.48
2023-04-02T07:15:52.684Z,10.18
2023-04-02T07:18:25.791Z,11.25
2023-04-02T07:20:53.537Z,10.25
2023-04-02T07:23:23.637Z,10.73
2023-04-02T07:25:53.007Z,9.93
2023-04-02T07:28:21.990Z,10.10
2023-04-02T07:30:52.702Z,10.38
2023-04-02T07:33:23.902Z,9.88
2023-04-02T07:35:52.343Z,10.25
2023-04-02T07:38:19.553Z,9.48
2023-04-02T07:40:47.253Z,9.98
2023-04-02T07:43:14.288Z,9.45
2023-04-02T07:45:41.855Z,10.20
2023-04-02T07:48:14.026Z,9.23
2023-04-02T07:50:44.056Z,10.00
2023-04-02T07:53:33.193Z,9.23
2023-04-02T07:56:02.072Z,10.65
2023-04-02T07:58:30.352Z,10.85
2023-04-02T08:00:59.482Z,10.40
2023-04-02T08:03:27.086Z,10.88
2023-04-02T08:06:01.487Z,10.60
2023-04-02T08:08:31.721Z,10.18
2023-04-02T08:11:01.524Z,11.48
2023-04-02T08:13:28.938Z,11.30
2023-04-02T08:15:59.278Z,11.30
2023-04-02T08:18:27.164Z,12.23
2023-04-02T08:20:54.240Z,11.68
2023-04-02T08:23:21.869Z,12.25
2023-04-02T08:25:49.223Z,11.77
2023-04-02T08:28:16.766Z,11.13
2023-04-02T08:30:44.489Z,11.35
2023-04-02T08:33:11.752Z,11.43
2023-04-02T08:35:41.164Z,10.90
2023-04-02T08:38:09.057Z,12.82
2023-04-02T08:40:39.239Z,11.18
2023-04-02T08:43:19.021Z,11.27
2023-04-02T08:46:02.062Z,11.75
2023-04-02T08:48:32.854Z,12.13
2023-04-02T08:51:00.514Z,11.55
2023-04-02T08:53:40.546Z,14.02
2023-04-02T08:56:27.334Z,12.93
2023-04-02T08:59:02.111Z,13.25
2023-04-02T09:02:04.803Z,11.40
2023-04-02T09:04:33.481Z,12.13
2023-04-02T09:07:01.125Z,12.48
2023-04-02T09:09:28.298Z,12.75
2023-04-02T09:12:04.226Z,13.95
2023-04-02T09:14:43.851Z,12.73
2023-04-02T09:17:18.965Z,12.38
2023-04-02T09:19:56.317Z,13.43
2023-04-02T09:22:32.381Z,12.70
2023-04-02T09:25:02.329Z,13.95
2023-04-02T09:27:32.798Z,12.40
2023-04-02T09:30:18.520Z,12.40
2023-04-02T09:32:48.578Z,12.35
2023-04-02T09:35:26.841Z,12.70
2023-04-02T09:38:16.350Z,12.35
2023-04-02T09:40:51.387Z,11.93
2023-04-02T09:43:25.743Z,11.40
2023-04-02T09:46:17.919Z,12.88
2023-04-02T09:48:53.593Z,13.07
2023-04-02T09:51:27.235Z,12.80
2023-04-02T09:54:03.997Z,12.35
2023-04-02T09:56:33.883Z,12.60
2023-04-02T09:59:18.470Z,11.82
2023-04-02T10:01:57.089Z,11.48
2023-04-02T10:04:49.691Z,12.60
2023-04-02T10:07:29.759Z,12.40
2023-04-02T10:10:18.921Z,12.35
2023-04-02T10:12:57.160Z,12.63
2023-04-02T10:15:49.117Z,12.32
2023-04-02T10:18:40.616Z,11.40
2023-04-02T10:21:12.021Z,12.05
2023-04-02T10:23:39.235Z,11.38
2023-04-02T10:26:44.997Z,11.38
2023-04-02T10:29:25.454Z,11.20
2023-04-02T10:32:15.275Z,11.65
2023-04-02T10:34:58.885Z,12.00
2023-04-02T10:37:49.029Z,11.18
2023-04-02T10:40:22.232Z,9.88
2023-04-02T10:42:54.830Z,10.45
2023-04-02T10:45:54.559Z,10.25
2023-04-02T10:48:27.707Z,10.75
2023-04-02T10:51:06.909Z,11.45
2023-04-02T10:53:49.896Z,9.52
2023-04-02T10:56:22.921Z,10.27
2023-04-02T10:58:58.710Z,10.45
2023-04-02T11:01:29.827Z,10.45
2023-04-02T11:04:05.842Z,9.73
2023-04-02T11:06:44.098Z,10.77
2023-04-02T11:09:19.933Z,10.88
2023-04-02T11:11:51.457Z,9.00
2023-04-02T11:14:26.974Z,8.73
2023-04-02T11:16:58.960Z,9.48
2023-04-02T11:19:40.741Z,8.63
2023-04-02T11:22:18.421Z,9.15
2023-04-02T11:24:46.346Z,8.00
2023-04-02T11:27:16.521Z,9.85
2023-04-02T11:29:50.676Z,9.07
2023-04-02T11:32:22.044Z,9.40
2023-04-02T11:34:56.440Z,9.68
2023-04-02T11:37:46.294Z,10.35
2023-04-02T11:40:16.215Z,9.50
2023-04-02T11:42:56.200Z,9.60
2023-04-02T11:45:23.440Z,10.82
2023-04-02T11:48:00.045Z,10.18
2023-04-02T11:50:48.523Z,9.75
2023-04-02T11:53:26.284Z,9.52
2023-04-02T11:56:31.403Z,11.15
2023-04-02T11:59:04.537Z,10.65
2023-04-02T12:01:53.223Z,10.18
2023-04-02T12:05:04.531Z,9.23
2023-04-02T12:08:08.835Z,9.02
2023-04-02T12:11:15.818Z,9.73
2023-04-02T12:13:43.092Z,9.37
2023-04-02T12:16:13.418Z,9.85
2023-04-02T12:18:56.717Z,9.32
2023-04-02T12:21:28.408Z,9.90
2023-04-02T12:23:58.836Z,10.02
2023-04-02T12:26:38.447Z,9.02
2023-04-02T12:29:35.688Z,9.82
2023-04-02T12:32:19.743Z,10.70
2023-04-02T12:34:46.906Z,10.25
2023-04-02T12:37:22.024Z,10.02
2023-04-02T12:40:16.343Z,9.63
2023-04-02T12:42:46.304Z,10.32
2023-04-02T12:45:34.172Z,10.20
2023-04-02T12:48:05.624Z,10.90
2023-04-02T12:50:34.334Z,9.75
2023-04-02T12:53:01.820Z,11.25
2023-04-02T12:55:28.976Z,11.80
2023-04-02T12:58:00.217Z,11.48
2023-04-02T13:00:29.936Z,11.23
2023-04-02T13:03:03.653Z,10.32
2023-04-02T13:05:43.748Z,11.45
2023-04-02T13:08:18.186Z,11.13
2023-04-02T13:10:45.872Z,10.25
2023-04-02T13:13:21.755Z,9.40
2023-04-02T13:16:06.096Z,10.70
2023-04-02T13:18:36.912Z,10.95
2023-04-02T13:21:24.888Z,11.27
2023-04-02T13:23:53.177Z,10.70
2023-04-02T13:26:24.284Z,10.98
2023-04-02T13:29:19.821Z,11.23
2023-04-02T13:31:47.482Z,10.38
2023-04-02T13:34:14.996Z,10.48
2023-04-02T13:36:44.418Z,10.80
2023-04-02T13:39:11.510Z,10.45
2023-04-02T13:41:46.756Z,10.85
2023-04-02T13:44:27.555Z,11.27
2023-04-02T13:46:56.501Z,10.27
2023-04-02T13:49:24.925Z,10.88
2023-04-02T13:51:54.926Z,10.75
2023-04-02T13:54:28.151Z,11.52
2023-04-02T13:57:01.733Z,11.38
2023-04-02T13:59:35.227Z,10.38
2023-04-02T14:02:10.630Z,10.35
2023-04-02T14:04:47.050Z,10.20
2023-04-02T14:07:22.049Z,9.18
2023-04-02T14:10:05.894Z,9.93
2023-04-02T14:12:58.462Z,10.00
2023-04-02T14:15:57.833Z,10.57
2023-04-02T14:19:02.936Z,12.07
2023-04-02T14:21:44.405Z,9.98
2023-04-02T14:24:11.508Z,10.40
2023-04-02T14:26:57.870Z,10.20
2023-04-02T14:29:30.680Z,10.15
2023-04-02T14:32:18.042Z,11.25
2023-04-02T14:35:18.282Z,10.77
2023-04-02T14:38:28.597Z,10.13
2023-04-02T14:41:11.784Z,10.52
2023-04-02T14:43:58.923Z,9.90
2023-04-02T14:49:02.084Z,9.18
2023-04-02T14:51:41.745Z,9.80
2023-04-02T14:54:33.740Z,10.52
2023-04-02T14:57:17.003Z,9.43
2023-04-02T14:59:56.041Z,9.88
2023-04-02T15:02:41.737Z,10.77
2023-04-02T15:05:36.138Z,10.02
2023-04-02T15:08:22.441Z,9.02
2023-04-02T15:13:25.716Z,9.25
2023-04-02T15:16:19.978Z,9.10
2023-04-02T15:18:52.373Z,8.70
2023-04-02T15:21:19.449Z,8.82
2023-04-02T15:24:16.698Z,8.60
2023-04-02T15:26:49.736Z,8.90
2023-04-02T15:29:35.856Z,10.32
2023-04-02T15:32:21.591Z,9.90
2023-04-02T15:35:15.488Z,9.27
2023-04-02T15:38:13.385Z,9.38
2023-04-02T15:40:43.483Z,10.52
2023-04-02T15:43:24.535Z,10.07
2023-04-02T15:46:16.586Z,10.93
2023-04-02T15:49:21.151Z,8.98
2023-04-02T15:51:57.212Z,12.68
2023-04-02T15:54:33.396Z,8.85
2023-04-02T15:57:30.225Z,9.65
2023-04-02T16:00:23.948Z,10.20
2023-04-02T16:03:09.626Z,8.95
2023-04-02T16:05:39.966Z,9.63
2023-04-02T16:08:48.098Z,8.75
2023-04-02T16:13:43.907Z,9.80
2023-04-02T16:16:22.112Z,10.07
2023-04-02T16:19:24.144Z,9.98
2023-04-02T16:22:01.741Z,10.98
2023-04-02T16:24:29.282Z,11.95
2023-04-02T16:27:11.823Z,11.82
2023-04-02T16:30:01.162Z,9.95
2023-04-02T16:32:57.134Z,11.75
2023-04-02T16:35:42.407Z,10.88
2023-04-02T16:38:38.534Z,10.45
2023-04-02T16:41:27.690Z,9.70
2023-04-02T16:44:07.205Z,9.32
2023-04-02T16:47:06.806Z,9.88
2023-04-02T16:50:12.396Z,8.20
2023-04-02T16:53:11.814Z,8.38
2023-04-02T16:55:49.422Z,8.45
2023-04-02T16:58:27.860Z,12.25
2023-04-02T17:01:01.070Z,7.97
2023-04-02T17:03:37.243Z,7.43
2023-04-02T17:06:13.491Z,7.75
2023-04-02T17:08:52.106Z,6.95
2023-04-02T17:11:22.033Z,8.48
2023-04-02T17:14:06.238Z,10.75
2023-04-02T17:16:50.729Z,7.10
2023-04-02T17:19:19.470Z,7.45
2023-04-02T17:21:52.623Z,7.40
2023-04-02T17:24:19.656Z,7.65
2023-04-02T17:26:50.352Z,6.90
2023-04-02T17:29:35.346Z,8.77
2023-04-02T17:32:05.370Z,7.15
2023-04-02T17:34:32.432Z,7.68
2023-04-02T17:37:11.790Z,8.38
2023-04-02T17:39:39.745Z,7.75
2023-04-02T17:42:36.710Z,7.90
2023-04-02T17:45:03.593Z,7.72
2023-04-02T17:47:34.026Z,9.23
2023-04-02T17:50:26.184Z,7.13
2023-04-02T17:52:56.759Z,7.15
2023-04-02T17:55:34.502Z,7.60
2023-04-02T17:58:11.401Z,8.18
2023-04-02T18:01:13.505Z,7.53
2023-04-02T18:03:49.531Z,9.65
2023-04-02T18:06:41.029Z,7.15
2023-04-02T18:09:19.287Z,7.13
2023-04-02T18:11:54.920Z,8.27
2023-04-02T18:14:37.890Z,7.77
2023-04-02T18:17:36.941Z,11.10
2023-04-02T18:20:31.349Z,7.50
2023-04-02T18:23:22.338Z,8.15
2023-04-02T18:26:08.335Z,8.32
2023-04-02T18:28:52.974Z,7.43
2023-04-02T18:31:43.481Z,7.97
2023-04-02T18:34:19.844Z,9.30
2023-04-02T18:36:52.913Z,8.02
2023-04-02T18:39:26.993Z,8.02
2023-04-02T18:42:05.696Z,7.47
2023-04-02T18:44:49.420Z,7.97
2023-04-02T18:47:36.823Z,8.07
2023-04-02T18:50:16.538Z,6.80
2023-04-02T18:52:43.523Z,9.25
2023-04-02T18:55:18.355Z,7.43
2023-04-02T18:57:48.872Z,7.68
2023-04-02T19:00:28.375Z,6.97
2023-04-02T19:03:02.095Z,9.18
2023-04-02T19:05:35.664Z,8.25
2023-04-02T19:08:11.242Z,10.82
2023-04-02T19:10:41.951Z,9.77
2023-04-02T19:13:22.910Z,7.80
2023-04-02T19:16:19.020Z,7.85
2023-04-02T19:19:03.221Z,6.95
2023-04-02T19:21:39.431Z,8.00
2023-04-02T19:24:15.606Z,7.53
2023-04-02T19:27:20.978Z,8.43
2023-04-02T19:29:57.278Z,10.10
2023-04-02T19:32:39.217Z,7.38
2023-04-02T19:35:18.292Z,7.63
2023-04-02T19:38:05.477Z,7.38
2023-04-02T19:40:53.717Z,8.60
2023-04-02T19:43:20.990Z,7.80
2023-04-02T19:45:49.223Z,11.25
2023-04-02T19:48:20.245Z,9.52
2023-04-02T19:50:49.200Z,7.90
2023-04-02T19:53:17.059Z,11.15
2023-04-02T19:55:45.601Z,7.68
2023-04-02T19:58:39.231Z,7.70
2023-04-02T20:01:06.694Z,8.18
2023-04-02T20:03:33.809Z,9.20
2023-04-02T20:06:01.178Z,8.75
2023-04-02T20:08:28.244Z,8.63
2023-04-02T20:10:56.180Z,8.20
2023-04-02T20:13:23.052Z,8.00
2023-04-02T20:15:51.602Z,8.15
2023-04-02T20:18:36.690Z,7.60
2023-04-02T20:21:13.658Z,7.47
2023-04-02T20:23:41.151Z,8.32
2023-04-02T20:26:08.764Z,8.00
2023-04-02T20:28:36.237Z,7.53
2023-04-02T20:31:09.339Z,7.53
2023-04-02T20:33:36.880Z,7.43
2023-04-02T20:36:07.223Z,7.32
2023-04-02T20:38:35.875Z,8.38
2023-04-02T20:41:15.404Z,9.07
2023-04-02T20:43:46.032Z,8.43
2023-04-02T20:46:14.459Z,8.93
2023-04-02T20:48:46.175Z,8.60
2023-04-02T20:51:15.353Z,8.02
2023-04-02T20:53:46.219Z,8.38
2023-04-02T20:56:15.833Z,7.78
2023-04-02T20:58:44.505Z,7.63
2023-04-02T21:01:21.308Z,6.60
2023-04-02T21:03:50.436Z,7.60
2023-04-02T21:06:21.362Z,6.72
2023-04-02T21:59:47.252Z,7.10
2023-04-02T22:02:14.795Z,8.82
2023-04-02T22:04:42.049Z,8.40
2023-04-02T22:07:09.111Z,7.93
2023-04-02T22:09:36.129Z,9.00
2023-04-02T22:12:03.208Z,9.10
2023-04-02T22:14:31.406Z,9.38
2023-04-02T22:17:23.600Z,10.27
2023-04-02T22:19:50.801Z,9.52
2023-04-02T22:22:17.652Z,10.18
2023-04-02T22:24:44.528Z,10.15
2023-04-02T22:27:12.930Z,9.60
2023-04-02T22:29:39.854Z,10.57
2023-04-02T22:32:06.758Z,10.18
2023-04-02T22:34:33.865Z,10.02
2023-04-02T22:37:00.999Z,9.52
2023-04-02T22:39:27.935Z,9.80
2023-04-02T22:41:55.024Z,9.73
2023-04-02T22:44:21.991Z,9.43
2023-04-02T22:46:48.887Z,9.60
2023-04-02T22:49:19.346Z,9.48
2023-04-02T22:51:46.994Z,10.60
2023-04-02T22:54:13.911Z,11.77
2023-04-02T22:56:41.354Z,12.00
2023-04-02T22:59:08.282Z,12.95
2023-04-02T23:01:36.185Z,13.27
2023-04-02T23:04:05.177Z,12.82
2023-04-02T23:06:32.310Z,12.70
2023-04-02T23:08:59.205Z,13.65
2023-04-02T23:11:27.849Z,13.35
2023-04-02T23:13:57.362Z,13.10
2023-04-02T23:16:27.306Z,12.52
2023-04-02T23:18:55.580Z,13.23
2023-04-02T23:21:23.516Z,10.57
2023-04-02T23:23:51.244Z,10.82
2023-04-02T23:26:29.681Z,11.85
2023-04-02T23:28:58.528Z,12.35
2023-04-02T23:31:26.503Z,10.82
2023-04-02T23:33:53.421Z,16.60
2023-04-02T23:36:29.256Z,10.10
2023-04-02T23:39:01.745Z,11.10
2023-04-02T23:41:30.531Z,10.98
2023-04-02T23:43:58.557Z,11.05
2023-04-02T23:46:26.007Z,11.52
2023-04-02T23:48:53.979Z,10.90
2023-04-02T23:51:21.297Z,10.90
2023-04-02T23:53:50.233Z,10.35
2023-04-02T23:56:18.001Z,10.20
2023-04-02T23:58:45.360Z,11.20
